Paul R Tregurtha — WYR4481 — position and weather

sailwx.info

Track history (hours):
 
Tides and Currents Weather Stations Pressure Air Temp Water Temp Dewpoint Dewpoint Depression Visibility Wind Speed Wind Dir Waves Ship Positions

Paul R Tregurtha

Owner: THE INTERLAKE STEAMSHIP COMPANY, Middleburg Heights, OH. More information available from US FCC via Universal Licensing System and Coast Guard Vessel Documentation Center.

Last reported at 2017-Oct-20 19:30 UTC. Time now 2017-Oct-20 19:54 UTC.
Position N 46°45' W 092°07'.

Length 309 m; draft 7.1 m.

Type: Cargo ship. MMSI: 366904940.

Date/timePositionNaut miles runAvg speedWind from/ knotsBaromVisibWave heightAir tempDewpointWater temp
2017-Oct-20 19:30N 46°45' W 092°07'0 0.0
2017-Oct-20 19:00N 46°45' W 092°07'3202.9
2017-Oct-20 19:00N 46°42' W 092°06'3 5.4 040 / 101008.1 15.1 11.6
2017-Oct-20 18:30N 46°45' W 092°07'0 0.0
2017-Oct-20 18:00N 46°45' W 092°07'3216.7
2017-Oct-20 18:00N 46°42' W 092°06'3 5.5 090 / 81009.1 14.8 11.6
2017-Oct-20 17:30N 46°45' W 092°07'3 5.2
2017-Oct-20 17:00N 46°42' W 092°06'330.3 060 / 11009.8 16.5 11.5
2017-Oct-20 16:54N 46°45' W 092°07'0 1.2
2017-Oct-20 16:30N 46°45' W 092°06'1 1.6
2017-Oct-20 16:00N 46°46' W 092°06'2183.4
2017-Oct-20 16:00N 46°48' W 092°06'2 5.0 090 / 41010.8 13.6 11.8
2017-Oct-20 15:30N 46°46' W 092°06'0 0.0
2017-Oct-20 15:00N 46°46' W 092°06'2151.8
2017-Oct-20 15:00N 46°48' W 092°06'2 5.0 060 / 21011.2 13.9 11.9
2017-Oct-20 14:30N 46°46' W 092°06'2 4.7
2017-Oct-20 14:00N 46°48' W 092°06'713.8 050 / 51011.5 11.8 12.4
2017-Oct-20 13:30N 46°49' W 091°56'712.7
2017-Oct-20 13:00N 46°52' W 091°48'2645.6
2017-Oct-20 13:00N 46°54' W 091°48'612.5 040 / 61011.5 10.5 13.4
2017-Oct-20 12:30N 46°54' W 091°39'612.3
2017-Oct-20 12:00N 46°56' W 091°31'2178.0
2017-Oct-20 12:00N 46°54' W 091°30'1413.7 200 / 81011.5 13.8 14.0
2017-Oct-20 11:00N 47°00' W 091°12'1010.1 090 / 31011.9 13.0 13.0
2017-Oct-20 10:00N 47°06' W 091°00'1212.3 350 / 31012.2 12.6 11.6
2017-Oct-20 09:00N 47°06' W 090°42'1413.6 180 / 71012.2 13.3 12.1
2017-Oct-20 08:00N 47°12' W 090°24'1212.2 180 / 121012.5 14.2 11.3
2017-Oct-20 07:00N 47°12' W 090°06'1413.6 210 / 291013.2 13.6 12.1
2017-Oct-20 06:00N 47°18' W 089°48'2512.6 190 / 151013.2 13.6 12.0
2017-Oct-20 04:00N 47°24' W 089°12'1212.2 200 / 161013.9 13.7 12.1
2017-Oct-20 03:00N 47°24' W 088°54'1212.2 190 / 161013.9 14.0 11.3
2017-Oct-20 02:00N 47°24' W 088°36'1413.6 180 / 121014.2 14.4 12.0
2017-Oct-20 01:00N 47°30' W 088°18'1212.2 160 / 81014.6 14.3 12.4
2017-Oct-20 00:00N 47°30' W 088°00'1212.2 180 / 41014.9 13.5 11.4
2017-Oct-19 23:00N 47°30' W 087°42'1010.1 240 / 111014.9 14.1 11.9
2017-Oct-19 22:00N 47°24' W 087°30'1212.2 230 / 151014.9 13.5 11.9
2017-Oct-19 21:00N 47°24' W 087°12'1010.1 240 / 171014.6 13.0 11.2
2017-Oct-19 20:00N 47°18' W 087°00'1413.6 250 / 181014.6 12.3 11.9
2017-Oct-19 19:00N 47°12' W 086°42'8 8.2 260 / 191014.2 12.3 12.6
2017-Oct-19 18:00N 47°12' W 086°30'1413.6 260 / 171014.2 11.8 12.6
2017-Oct-19 17:00N 47°06' W 086°12'39 9.7 260 / 231013.5 11.6 12.5
2017-Oct-19 13:00N 46°54' W 085°18'1010.2 260 / 211011.2 11.9 12.6
2017-Oct-19 12:00N 46°48' W 085°06'1010.2 260 / 251009.8 12.8 13.8
2017-Oct-19 11:00N 46°42' W 084°54'1010.2 260 / 181010.5 11.7 14.8
2017-Oct-19 10:00N 46°36' W 084°42'1010.2 260 / 191010.2 12.9 14.6
2017-Oct-19 09:00N 46°30' W 084°30'4 4.1 310 / 221008.5 13.8 14.4
2017-Oct-19 08:00N 46°30' W 084°24'4 4.1 280 / 101008.8 14.0 14.2
2017-Oct-19 07:00N 46°30' W 084°18'6 6.0 280 / 151008.3 15.3 14.3
2017-Oct-19 06:00N 46°24' W 084°18'7 7.3 260 / 121008.3 16.4 14.2
2017-Oct-19 05:00N 46°18' W 084°12'7 7.3 230 / 121007.9 16.9 14.2
2017-Oct-19 04:00N 46°12' W 084°06'7 7.3 220 / 191008.3 16.4 14.0
2017-Oct-19 03:00N 46°06' W 084°00'1514.6 220 / 211009.6 16.2 13.7
2017-Oct-19 02:00N 45°54' W 083°48'1313.7 210 / 201010.6 16.2 14.7
2017-Oct-19 01:02N 45°42' W 083°41'012.8
2017-Oct-19 01:00N 45°42' W 083°40'1118.5
2017-Oct-19 01:00N 45°42' W 083°42'715.3 210 / 251011.3 17.2 15.4
2017-Oct-19 00:30N 45°36' W 083°35'612.8
2017-Oct-19 00:00N 45°31' W 083°30'161.0
2017-Oct-19 00:00N 45°30' W 083°30'611.5 190 / 161012.7 16.6 15.2
2017-Oct-18 23:30N 45°26' W 083°25'612.6
2017-Oct-18 23:00N 45°20' W 083°20'4240.8
2017-Oct-18 23:00N 45°24' W 083°18'1312.7 200 / 171013.0 17.4 14.4
2017-Oct-18 22:00N 45°12' W 083°12'1312.7 180 / 201013.3 15.3 13.8
2017-Oct-18 21:00N 45°00' W 083°06'1312.7 200 / 231014.7 16.6 15.3
2017-Oct-18 20:00N 44°48' W 083°00'1312.7 200 / 241016.4 16.5 15.4
2017-Oct-18 19:00N 44°36' W 082°54'1312.7 210 / 251017.7 16.3 15.8
2017-Oct-18 18:00N 44°24' W 082°48'3812.8 220 / 181018.8 15.9 14.9
2017-Oct-18 15:00N 43°48' W 082°30'1212.0 200 / 141022.5 14.1 16.2
2017-Oct-18 14:00N 43°36' W 082°30'1818.0 220 / 141022.8 12.5 14.2
2017-Oct-18 13:00N 43°18' W 082°30'1312.8 200 / 161023.2 11.4 15.7
2017-Oct-18 12:00N 43°06' W 082°24'6 6.0 210 / 151023.5 11.0 16.4
2017-Oct-18 11:00N 43°00' W 082°24'1312.8 220 / 151023.5 12.3 16.1
2017-Oct-18 10:00N 42°48' W 082°30'6 6.0 220 / 51023.5 11.4 16.1
2017-Oct-18 09:00N 42°42' W 082°30'1312.8 220 / 71023.2 13.0 16.1
2017-Oct-18 08:00N 42°30' W 082°36'1110.7 240 / 101023.3 14.8 15.9
2017-Oct-18 07:00N 42°24' W 082°48'1110.7 230 / 121023.0 14.1 16.2
2017-Oct-18 06:00N 42°18' W 083°00'7 7.5 200 / 81022.6 12.9 16.3
2017-Oct-18 05:00N 42°12' W 083°06'6 6.0 200 / 61023.0 13.1 16.3
2017-Oct-18 04:00N 42°06' W 083°06'1212.0 210 / 71023.2 14.4 16.3
2017-Oct-18 03:00N 41°54' W 083°06'9 8.9 210 / 161023.2 16.2 16.7
2017-Oct-18 02:00N 41°54' W 083°18'0 0.0 220 / 161022.9 17.8 17.3
2017-Oct-18 01:00N 41°54' W 083°18'0 0.0 160 / 11022.5 16.1 17.7
2017-Oct-18 00:00N 41°54' W 083°18'0 0.0 100 / 11022.2 17.1 17.7
2017-Oct-17 23:00N 41°54' W 083°18'0 0.0 280 / 11021.2 18.0 17.7
2017-Oct-17 22:00N 41°54' W 083°18'0 0.0 290 / 11020.8 19.0 17.6
2017-Oct-17 21:00N 41°54' W 083°18'0 0.0 210 / 21021.2 19.8 17.5
2017-Oct-17 20:00N 41°54' W 083°18'0 0.0 240 / 21021.8 19.5 17.4
2017-Oct-17 19:00N 41°54' W 083°18'0 0.0 010 / 31022.2 19.3 17.3
2017-Oct-17 18:00N 41°54' W 083°18'0 0.0 140 / 31022.5 18.8 17.3
2017-Oct-17 17:00N 41°54' W 083°18'0 0.0 180 / 31023.5 17.9 17.3
2017-Oct-17 16:00N 41°54' W 083°18'4 4.5 240 / 91024.2 15.7 17.3
2017-Oct-17 15:00N 41°54' W 083°12'7 7.5 250 / 161023.9 12.9 16.9
2017-Oct-17 14:00N 42°00' W 083°06'6 6.0 250 / 231023.5 11.4 16.3
2017-Oct-17 13:00N 42°06' W 083°06'1212.0 240 / 91023.6 9.2 16.4
2017-Oct-17 12:00N 42°18' W 083°06'1110.7 210 / 111023.0 8.5 16.5
2017-Oct-17 11:00N 42°24' W 082°54'1110.7 240 / 101023.3 9.8 16.5
2017-Oct-17 10:00N 42°30' W 082°42'7 7.5 210 / 191022.6 11.9 16.4
2017-Oct-17 09:00N 42°36' W 082°36'7 7.4 220 / 121023.5 12.4 16.4
2017-Oct-17 08:00N 42°42' W 082°30'6 6.0 200 / 51023.5 10.4 16.8
2017-Oct-17 07:00N 42°48' W 082°30'0 0.0 270 / 71024.2 9.6 19.1
2017-Oct-17 06:00N 42°48' W 082°30'0 0.0 250 / 41024.2 9.8 18.9
2017-Oct-17 05:00N 42°48' W 082°30'0 0.0 240 / 51024.2 9.9 18.9
2017-Oct-17 04:00N 42°48' W 082°30'0 0.0 230 / 51024.2 10.6 18.8
2017-Oct-17 03:00N 42°48' W 082°30'0 0.0 240 / 61024.5 10.5 18.9
2017-Oct-17 02:00N 42°48' W 082°30'0 0.0 240 / 61024.5 10.7 18.8
2017-Oct-17 01:00N 42°48' W 082°30'0 0.0 250 / 71024.8 12.0 19.0
2017-Oct-17 00:00N 42°48' W 082°30'0 0.0 240 / 61025.2 11.8 18.9
2017-Oct-16 23:00N 42°48' W 082°30'0 0.0 270 / 71024.8 11.3 18.7
2017-Oct-16 22:00N 42°48' W 082°30'0 0.0 240 / 61024.8 14.2 18.8
2017-Oct-16 21:00N 42°48' W 082°30'0 0.0 340 / 11024.8 12.7 18.8
2017-Oct-16 20:00N 42°48' W 082°30'6 6.0 240 / 41024.8 12.6 18.2
2017-Oct-16 19:00N 42°42' W 082°30'0 0.0 260 / 71025.2 11.2 17.2
2017-Oct-16 18:00N 42°42' W 082°30'0 0.0 270 / 61025.5 11.2 17.2
2017-Oct-16 17:00N 42°42' W 082°30'0 0.0 050 / 41026.2 10.1 17.2
2017-Oct-16 16:00N 42°42' W 082°30'0 0.0 010 / 81026.2 9.2 17.2
2017-Oct-16 15:00N 42°42' W 082°30'0 0.0 320 / 111025.9 7.8 17.2
2017-Oct-16 14:00N 42°42' W 082°30'6 6.0 340 / 81025.9 6.6 17.0
2017-Oct-16 13:00N 42°48' W 082°30'6 6.0 320 / 71025.2 6.4 16.9
2017-Oct-16 12:00N 42°54' W 082°30'1312.8 310 / 71024.2 4.4 16.8
2017-Oct-16 11:00N 43°06' W 082°24'1212.0 300 / 171023.2 7.0 16.9
2017-Oct-16 10:00N 43°18' W 082°24'1212.0 300 / 201022.5 7.7 16.9
2017-Oct-16 09:00N 43°30' W 082°24'1212.0 280 / 221021.8 7.8 17.6
2017-Oct-16 08:00N 43°42' W 082°24'6 6.0 310 / 201020.8 8.5 17.8
2017-Oct-16 07:00N 43°48' W 082°24'1312.8 340 / 191021.1 10.4 17.8
2017-Oct-16 06:00N 44°00' W 082°30'1312.8 330 / 211020.8 10.2 16.8
2017-Oct-16 05:00N 44°12' W 082°36'8112.0 330 / 201020.1 10.2 15.2
2017-Oct-15 22:14N 45°28' W 083°16'311.8
2017-Oct-15 22:00N 45°30' W 083°19'611.8
2017-Oct-15 21:30N 45°35' W 083°24'611.8
2017-Oct-15 21:00N 45°39' W 083°30'611.8
2017-Oct-15 20:30N 45°43' W 083°36'1711.1
2017-Oct-15 19:00N 45°54' W 083°54'1312.7 350 / 281009.9 7.7 14.9
2017-Oct-15 18:00N 46°06' W 084°00'7 7.3 330 / 261008.6 6.3 14.3
2017-Oct-15 17:00N 46°12' W 084°06'7 7.3 010 / 231006.6 6.1 14.2
2017-Oct-15 16:00N 46°18' W 084°12'6 6.0 330 / 181005.9 8.0 14.3
2017-Oct-15 15:00N 46°24' W 084°12'7 7.3 010 / 151004.9 7.2 14.6
2017-Oct-15 14:00N 46°30' W 084°18'4 4.1 360 / 111004.2 7.4 14.8
2017-Oct-15 13:00N 46°30' W 084°24'0 0.0 030 / 81003.4 8.0 14.9
2017-Oct-15 12:00N 46°30' W 084°24'0 0.0 040 / 121001.7 7.3 14.8
2017-Oct-15 11:00N 46°30' W 084°24'0 0.0 050 / 111000.7 8.2 14.8
2017-Oct-15 10:00N 46°30' W 084°24'4 4.1 050 / 141001.4 8.2 15.0
2017-Oct-15 09:00N 46°30' W 084°30'4 4.1 070 / 111002.4 8.2 15.1
2017-Oct-15 08:00N 46°30' W 084°36'4 4.1 080 / 161004.7 8.7 15.4
2017-Oct-15 07:00N 46°30' W 084°42'1312.7 040 / 151007.1 8.7 15.5
2017-Oct-15 06:00N 46°42' W 084°48'7 7.3 050 / 211009.8 8.4 15.7
2017-Oct-15 05:00N 46°48' W 084°54'1413.7 090 / 181011.2 9.7 15.3
2017-Oct-15 04:00N 46°54' W 085°12'1413.7 090 / 141012.9 12.5 14.7
2017-Oct-15 03:00N 47°00' W 085°30'6610.9 120 / 331013.2 12.8 13.3
2017-Oct-14 21:00N 47°24' W 087°00'1413.6 130 / 91020.0 10.6 12.5
2017-Oct-14 20:00N 47°30' W 087°18'1413.5 090 / 71021.0 10.5 12.5
2017-Oct-14 19:00N 47°36' W 087°36'1212.1 100 / 71021.7 10.1 13.2
2017-Oct-14 18:00N 47°36' W 087°54'1212.1 090 / 101022.7 9.6 11.4
2017-Oct-14 17:00N 47°36' W 088°12'1212.1 080 / 101023.4 9.6 12.0
2017-Oct-14 16:00N 47°36' W 088°30'1010.1 080 / 71024.0 9.7 12.0
2017-Oct-14 15:00N 47°30' W 088°42'1212.2 080 / 81024.4 10.1 12.7
2017-Oct-14 14:00N 47°30' W 089°00'1413.6 070 / 81024.4 9.9 12.5
2017-Oct-14 13:00N 47°24' W 089°18'1212.2 030 / 121023.4 10.2 13.0
2017-Oct-14 12:00N 47°24' W 089°36'1212.2 040 / 71022.4 10.5 13.0
2017-Oct-14 11:00N 47°24' W 089°54'1413.6 040 / 61022.7 10.7 12.4
2017-Oct-14 10:00N 47°18' W 090°12'1212.2 360 / 61023.0 10.4 12.4
2017-Oct-14 09:00N 47°18' W 090°30'1010.1 020 / 51023.0 10.6 12.2
2017-Oct-14 08:00N 47°12' W 090°42'1212.2 320 / 81023.0 10.6 12.9
2017-Oct-14 07:00N 47°12' W 091°00'1315.2 340 / 101022.7 10.7 13.6
2017-Oct-14 06:09N 47°04' W 091°15'212.2
2017-Oct-14 06:00N 47°03' W 091°18'3365.1
2017-Oct-14 06:00N 47°06' W 091°18'914.3 320 / 131022.7 10.0 14.8
2017-Oct-14 05:20N 46°60' W 091°28'412.6
2017-Oct-14 05:00N 46°58' W 091°34'3817.6
2017-Oct-14 05:00N 47°00' W 091°30'919.2 320 / 121022.7 10.0 15.1
2017-Oct-14 04:30N 46°55' W 091°42'4 8.7
2017-Oct-14 04:00N 46°54' W 091°48'2358.9 310 / 121022.7 10.6 14.5
2017-Oct-14 03:59N 46°52' W 091°50'612.1
2017-Oct-14 03:30N 46°50' W 091°57'611.2
2017-Oct-14 03:00N 46°47' W 092°05'184.9
2017-Oct-14 03:00N 46°48' W 092°06'3 6.1 320 / 91022.7 10.2 14.3
2017-Oct-14 02:30N 46°45' W 092°06'3 5.9
2017-Oct-14 02:00N 46°42' W 092°06'3156.3 270 / 41022.0 10.8 13.2
2017-Oct-14 01:58N 46°45' W 092°07'0 0.0
2017-Oct-14 01:29N 46°45' W 092°07'3 5.5
2017-Oct-14 01:00N 46°42' W 092°06'3156.3 290 / 41021.7 10.5 13.2
2017-Oct-14 00:58N 46°45' W 092°07'0 0.0
2017-Oct-14 00:29N 46°45' W 092°07'3 5.5
2017-Oct-14 00:00N 46°42' W 092°06'339.4 300 / 91021.0 12.6 12.9
2017-Oct-13 23:55N 46°45' W 092°07'0 0.0
2017-Oct-13 23:26N 46°45' W 092°07'3 6.1
2017-Oct-13 23:00N 46°42' W 092°06'3156.0 290 / 51020.3 14.4 12.7
2017-Oct-13 22:58N 46°45' W 092°07'0 0.0
2017-Oct-13 22:28N 46°45' W 092°07'3 5.5
2017-Oct-13 22:00N 46°42' W 092°06'3158.9 320 / 91020.0 13.9 12.5
2017-Oct-13 21:59N 46°45' W 092°07'0 0.0
2017-Oct-13 21:28N 46°45' W 092°07'3 5.5
2017-Oct-13 21:00N 46°42' W 092°06'3151.4 1020.0 14.9 12.5
2017-Oct-13 20:58N 46°45' W 092°07'0 0.0
2017-Oct-13 20:28N 46°45' W 092°07'3 5.5
2017-Oct-13 20:00N 46°42' W 092°06'3158.9 290 / 121019.6 15.2 12.4
2017-Oct-13 19:59N 46°45' W 092°07'0 0.0
2017-Oct-13 19:28N 46°45' W 092°07'3 5.5
2017-Oct-13 19:00N 46°42' W 092°06'3146.7 310 / 111019.6 13.5 12.4
2017-Oct-13 18:58N 46°45' W 092°07'0 0.0
2017-Oct-13 18:26N 46°45' W 092°07'3 6.1
2017-Oct-13 18:00N 46°42' W 092°06'339.0 280 / 151019.6 14.0 12.4
2017-Oct-13 17:55N 46°45' W 092°07'0 0.0
2017-Oct-13 17:28N 46°45' W 092°07'3 5.5
2017-Oct-13 17:00N 46°42' W 092°06'339.7 310 / 121020.0 11.3 12.4
2017-Oct-13 16:56N 46°45' W 092°07'0 0.0
2017-Oct-13 16:25N 46°45' W 092°07'3 6.1
2017-Oct-13 16:00N 46°42' W 092°06'3151.4 290 / 121020.3 11.5 12.5
2017-Oct-13 15:58N 46°45' W 092°07'0 0.0
2017-Oct-13 15:28N 46°45' W 092°07'0 0.0
2017-Oct-13 15:00N 46°45' W 092°07'3222.1
2017-Oct-13 15:00N 46°42' W 092°06'3 6.6 270 / 81020.0 10.9 12.4
2017-Oct-13 14:30N 46°45' W 092°06'0 0.8
2017-Oct-13 14:00N 46°46' W 092°06'2157.2
2017-Oct-13 14:00N 46°48' W 092°06'2 5.0 230 / 101019.3 10.1 13.1
2017-Oct-13 13:30N 46°46' W 092°06'0 0.0
2017-Oct-13 13:00N 46°46' W 092°06'2166.1
2017-Oct-13 13:00N 46°48' W 092°06'2 5.0 270 / 61017.3 10.9 13.1
2017-Oct-13 12:30N 46°46' W 092°06'0 0.2
2017-Oct-13 12:00N 46°46' W 092°06'2163.4
2017-Oct-13 12:00N 46°48' W 092°06'2 4.7 280 / 71016.9 11.1 13.3
2017-Oct-13 11:30N 46°48' W 092°03'612.5
2017-Oct-13 11:00N 46°50' W 091°54'2141.2
2017-Oct-13 11:00N 46°48' W 091°54'714.7 280 / 111014.9 12.7 14.7
2017-Oct-13 10:30N 46°53' W 091°46'612.5
2017-Oct-13 10:00N 46°55' W 091°37'1198.2
2017-Oct-13 10:00N 46°54' W 091°36'611.9 240 / 121013.5 13.9 15.3
2017-Oct-13 09:30N 46°57' W 091°29'4 8.5
2017-Oct-13 09:00N 47°00' W 091°24'1413.7 220 / 161013.2 14.1 15.1
2017-Oct-13 08:00N 47°06' W 091°06'1413.6 250 / 121013.2 14.1 14.2
2017-Oct-13 07:00N 47°12' W 090°48'1212.2 220 / 141013.2 14.2 13.7
2017-Oct-13 06:00N 47°12' W 090°30'1413.6 180 / 131013.5 13.8 13.4
2017-Oct-13 05:00N 47°18' W 090°12'1413.6 190 / 131013.9 13.4 12.9
2017-Oct-13 04:00N 47°24' W 089°54'1413.6 160 / 121014.6 12.5 13.4
2017-Oct-13 03:00N 47°30' W 089°36'1212.2 170 / 131014.9 12.8 13.4
2017-Oct-13 02:00N 47°30' W 089°18'1413.5 170 / 161014.9 12.8 13.4
2017-Oct-13 01:00N 47°36' W 089°00'1212.1 190 / 181015.9 13.3 13.6
2017-Oct-13 00:00N 47°36' W 088°42'1212.1 180 / 121016.6 13.7 13.3
2017-Oct-12 23:00N 47°36' W 088°24'1413.5 160 / 151017.3 13.3 12.4
2017-Oct-12 22:00N 47°42' W 088°06'1212.1 160 / 131017.6 12.8 11.9
2017-Oct-12 21:00N 47°42' W 087°48'1717.2 160 / 201018.3 12.8 11.4
2017-Oct-12 20:00N 47°36' W 087°24'1010.1 160 / 181019.3 12.1 12.5
2017-Oct-12 19:00N 47°30' W 087°12'1413.6 170 / 151021.0 11.8 12.5
2017-Oct-12 18:00N 47°24' W 086°54'1413.6 160 / 161022.0 11.9 13.7
2017-Oct-12 17:00N 47°18' W 086°36'6212.4 150 / 161023.4 11.8 14.2
2017-Oct-12 12:00N 46°54' W 085°12'1717.2 150 / 161027.1 10.1 15.4
2017-Oct-12 11:00N 46°42' W 084°54'1010.2 120 / 171026.8 9.3 16.0
2017-Oct-12 10:00N 46°36' W 084°42'1010.2 120 / 151027.1 9.1 15.8
2017-Oct-12 09:00N 46°30' W 084°30'4 4.1 090 / 101027.1 7.5 15.5
2017-Oct-12 08:00N 46°30' W 084°24'4 4.1 110 / 31027.1 8.7 15.4
2017-Oct-12 07:00N 46°30' W 084°18'0 0.0 110 / 81027.2 10.0 15.6
2017-Oct-12 06:00N 46°30' W 084°18'0 0.0 080 / 81026.9 9.2 15.4
2017-Oct-12 05:00N 46°30' W 084°18'7 7.3 080 / 51027.2 8.5 15.3
2017-Oct-12 04:00N 46°24' W 084°12'7 7.3 110 / 111027.2 9.9 15.3
2017-Oct-12 03:00N 46°18' W 084°06'6 6.0 080 / 61027.2 10.2 15.5
2017-Oct-12 02:00N 46°12' W 084°06'7 7.3 060 / 101026.9 11.8 15.4
2017-Oct-12 01:00N 46°06' W 084°00'1515.5 120 / 121026.9 12.2 15.5
2017-Oct-12 00:01N 45°52' W 083°50'273.5
2017-Oct-12 00:00N 45°54' W 083°48'2190.9 100 / 201026.2 12.5 15.7
2017-Oct-11 23:59N 45°52' W 083°50'712.6
2017-Oct-11 23:27N 45°46' W 083°45'612.4
2017-Oct-11 23:00N 45°42' W 083°40'1124.7
2017-Oct-11 23:00N 45°42' W 083°42'714.3 110 / 181026.510.8 12.8 17.1
2017-Oct-11 22:30N 45°37' W 083°35'612.4
2017-Oct-11 22:00N 45°32' W 083°30'612.5
2017-Oct-11 21:30N 45°27' W 083°25'612.5
2017-Oct-11 21:00N 45°21' W 083°20'3202.6
2017-Oct-11 21:00N 45°24' W 083°18'1312.7 080 / 191026.2 12.6 17.1
2017-Oct-11 20:00N 45°12' W 083°12'1312.7 090 / 221025.5 11.8 16.7
2017-Oct-11 19:00N 45°00' W 083°06'1312.7 080 / 211024.8 12.3 17.7
2017-Oct-11 18:00N 44°48' W 083°00'1312.7 090 / 251024.2 11.9 17.2
2017-Oct-11 17:00N 44°36' W 082°54'3511.5 100 / 251023.8 11.5 16.9
2017-Oct-11 14:00N 44°06' W 082°30'1312.8 090 / 271022.8 11.7 17.8
2017-Oct-11 13:00N 43°54' W 082°24'1212.0 080 / 261021.8 12.4 19.2
2017-Oct-11 12:00N 43°42' W 082°24'1212.0 080 / 231020.4 13.6 19.2
2017-Oct-11 11:00N 43°30' W 082°24'1212.0 080 / 231019.1 13.5 19.1
2017-Oct-11 10:00N 43°18' W 082°24'1212.0 070 / 211018.4 13.6 19.0
2017-Oct-11 09:00N 43°06' W 082°24'6 6.0 070 / 171019.1 14.4 18.8
2017-Oct-11 08:00N 43°00' W 082°24'1312.8 090 / 71020.1 13.7 18.9
2017-Oct-11 07:00N 42°48' W 082°30'0 0.0 050 / 101020.1 13.6 19.3
2017-Oct-11 06:00N 42°48' W 082°30'0 0.0 080 / 91021.1 14.4 21.7
2017-Oct-11 05:00N 42°48' W 082°30'0 0.0 090 / 121020.1 14.4 21.4
2017-Oct-11 04:00N 42°48' W 082°30'0 0.0 070 / 131021.1 14.6 21.4
2017-Oct-11 03:00N 42°48' W 082°30'0 0.0 080 / 121021.8 15.0 21.6
2017-Oct-11 02:00N 42°48' W 082°30'0 0.0 060 / 121022.1 15.1 21.6
2017-Oct-11 01:00N 42°48' W 082°30'0 0.0 010 / 121022.8 15.3 21.3
2017-Oct-11 00:00N 42°48' W 082°30'0 0.0 080 / 101022.5 15.3 21.5
2017-Oct-10 23:00N 42°48' W 082°30'0 0.0 080 / 111022.5 15.8 21.3
2017-Oct-10 22:00N 42°48' W 082°30'0 0.0 070 / 111022.1 16.3 21.5
2017-Oct-10 21:00N 42°48' W 082°30'0 0.0 080 / 101021.8 16.9 21.5
2017-Oct-10 20:00N 42°48' W 082°30'   070 / 51022.5 17.4 21.4
Track history (hours):
 
Tides and Currents Weather Stations Pressure Air Temp Water Temp Dewpoint Dewpoint Depression Visibility Wind Speed Wind Dir Waves Ship Positions

Paul R Tregurtha

Owner: THE INTERLAKE STEAMSHIP COMPANY, Middleburg Heights, OH. More information available from US FCC via Universal Licensing System and Coast Guard Vessel Documentation Center.

Last reported at 2017-Oct-20 19:30 UTC. Time now 2017-Oct-20 19:54 UTC.
Position N 46°45' W 092°07'.

Length 309 m; draft 7.1 m.

Type: Cargo ship. MMSI: 366904940.

Date/timePositionNaut miles runAvg speedWind from/ knotsBaromVisibWave heightAir tempDewpointWater temp
2017-Oct-20 19:30N 46°45' W 092°07'0 0.0
2017-Oct-20 19:00N 46°45' W 092°07'3202.9
2017-Oct-20 19:00N 46°42' W 092°06'3 5.4 040 / 101008.1 15.1 11.6
2017-Oct-20 18:30N 46°45' W 092°07'0 0.0
2017-Oct-20 18:00N 46°45' W 092°07'3216.7
2017-Oct-20 18:00N 46°42' W 092°06'3 5.5 090 / 81009.1 14.8 11.6
2017-Oct-20 17:30N 46°45' W 092°07'3 5.2
2017-Oct-20 17:00N 46°42' W 092°06'330.3 060 / 11009.8 16.5 11.5
2017-Oct-20 16:54N 46°45' W 092°07'0 1.2
2017-Oct-20 16:30N 46°45' W 092°06'1 1.6
2017-Oct-20 16:00N 46°46' W 092°06'2183.4
2017-Oct-20 16:00N 46°48' W 092°06'2 5.0 090 / 41010.8 13.6 11.8
2017-Oct-20 15:30N 46°46' W 092°06'0 0.0
2017-Oct-20 15:00N 46°46' W 092°06'2151.8
2017-Oct-20 15:00N 46°48' W 092°06'2 5.0 060 / 21011.2 13.9 11.9
2017-Oct-20 14:30N 46°46' W 092°06'2 4.7
2017-Oct-20 14:00N 46°48' W 092°06'713.8 050 / 51011.5 11.8 12.4
2017-Oct-20 13:30N 46°49' W 091°56'712.7
2017-Oct-20 13:00N 46°52' W 091°48'2645.6
2017-Oct-20 13:00N 46°54' W 091°48'612.5 040 / 61011.5 10.5 13.4
2017-Oct-20 12:30N 46°54' W 091°39'612.3
2017-Oct-20 12:00N 46°56' W 091°31'2178.0
2017-Oct-20 12:00N 46°54' W 091°30'1413.7 200 / 81011.5 13.8 14.0
2017-Oct-20 11:00N 47°00' W 091°12'1010.1 090 / 31011.9 13.0 13.0
2017-Oct-20 10:00N 47°06' W 091°00'1212.3 350 / 31012.2 12.6 11.6
2017-Oct-20 09:00N 47°06' W 090°42'1413.6 180 / 71012.2 13.3 12.1
2017-Oct-20 08:00N 47°12' W 090°24'1212.2 180 / 121012.5 14.2 11.3
2017-Oct-20 07:00N 47°12' W 090°06'1413.6 210 / 291013.2 13.6 12.1
2017-Oct-20 06:00N 47°18' W 089°48'2512.6 190 / 151013.2 13.6 12.0
2017-Oct-20 04:00N 47°24' W 089°12'1212.2 200 / 161013.9 13.7 12.1
2017-Oct-20 03:00N 47°24' W 088°54'1212.2 190 / 161013.9 14.0 11.3
2017-Oct-20 02:00N 47°24' W 088°36'1413.6 180 / 121014.2 14.4 12.0
2017-Oct-20 01:00N 47°30' W 088°18'1212.2 160 / 81014.6 14.3 12.4
2017-Oct-20 00:00N 47°30' W 088°00'1212.2 180 / 41014.9 13.5 11.4
2017-Oct-19 23:00N 47°30' W 087°42'1010.1 240 / 111014.9 14.1 11.9
2017-Oct-19 22:00N 47°24' W 087°30'1212.2 230 / 151014.9 13.5 11.9
2017-Oct-19 21:00N 47°24' W 087°12'1010.1 240 / 171014.6 13.0 11.2
2017-Oct-19 20:00N 47°18' W 087°00'1413.6 250 / 181014.6 12.3 11.9
2017-Oct-19 19:00N 47°12' W 086°42'8 8.2 260 / 191014.2 12.3 12.6
2017-Oct-19 18:00N 47°12' W 086°30'1413.6 260 / 171014.2 11.8 12.6
2017-Oct-19 17:00N 47°06' W 086°12'39 9.7 260 / 231013.5 11.6 12.5
2017-Oct-19 13:00N 46°54' W 085°18'1010.2 260 / 211011.2 11.9 12.6
2017-Oct-19 12:00N 46°48' W 085°06'1010.2 260 / 251009.8 12.8 13.8
2017-Oct-19 11:00N 46°42' W 084°54'1010.2 260 / 181010.5 11.7 14.8
2017-Oct-19 10:00N 46°36' W 084°42'1010.2 260 / 191010.2 12.9 14.6
2017-Oct-19 09:00N 46°30' W 084°30'4 4.1 310 / 221008.5 13.8 14.4
2017-Oct-19 08:00N 46°30' W 084°24'4 4.1 280 / 101008.8 14.0 14.2
2017-Oct-19 07:00N 46°30' W 084°18'6 6.0 280 / 151008.3 15.3 14.3
2017-Oct-19 06:00N 46°24' W 084°18'7 7.3 260 / 121008.3 16.4 14.2
2017-Oct-19 05:00N 46°18' W 084°12'7 7.3 230 / 121007.9 16.9 14.2
2017-Oct-19 04:00N 46°12' W 084°06'7 7.3 220 / 191008.3 16.4 14.0
2017-Oct-19 03:00N 46°06' W 084°00'1514.6 220 / 211009.6 16.2 13.7
2017-Oct-19 02:00N 45°54' W 083°48'1313.7 210 / 201010.6 16.2 14.7
2017-Oct-19 01:02N 45°42' W 083°41'012.8
2017-Oct-19 01:00N 45°42' W 083°40'1118.5
2017-Oct-19 01:00N 45°42' W 083°42'715.3 210 / 251011.3 17.2 15.4
2017-Oct-19 00:30N 45°36' W 083°35'612.8
2017-Oct-19 00:00N 45°31' W 083°30'161.0
2017-Oct-19 00:00N 45°30' W 083°30'611.5 190 / 161012.7 16.6 15.2
2017-Oct-18 23:30N 45°26' W 083°25'612.6
2017-Oct-18 23:00N 45°20' W 083°20'4240.8
2017-Oct-18 23:00N 45°24' W 083°18'1312.7 200 / 171013.0 17.4 14.4
2017-Oct-18 22:00N 45°12' W 083°12'1312.7 180 / 201013.3 15.3 13.8
2017-Oct-18 21:00N 45°00' W 083°06'1312.7 200 / 231014.7 16.6 15.3
2017-Oct-18 20:00N 44°48' W 083°00'1312.7 200 / 241016.4 16.5 15.4
2017-Oct-18 19:00N 44°36' W 082°54'1312.7 210 / 251017.7 16.3 15.8
2017-Oct-18 18:00N 44°24' W 082°48'3812.8 220 / 181018.8 15.9 14.9
2017-Oct-18 15:00N 43°48' W 082°30'1212.0 200 / 141022.5 14.1 16.2
2017-Oct-18 14:00N 43°36' W 082°30'1818.0 220 / 141022.8 12.5 14.2
2017-Oct-18 13:00N 43°18' W 082°30'1312.8 200 / 161023.2 11.4 15.7
2017-Oct-18 12:00N 43°06' W 082°24'6 6.0 210 / 151023.5 11.0 16.4
2017-Oct-18 11:00N 43°00' W 082°24'1312.8 220 / 151023.5 12.3 16.1
2017-Oct-18 10:00N 42°48' W 082°30'6 6.0 220 / 51023.5 11.4 16.1
2017-Oct-18 09:00N 42°42' W 082°30'1312.8 220 / 71023.2 13.0 16.1
2017-Oct-18 08:00N 42°30' W 082°36'1110.7 240 / 101023.3 14.8 15.9
2017-Oct-18 07:00N 42°24' W 082°48'1110.7 230 / 121023.0 14.1 16.2
2017-Oct-18 06:00N 42°18' W 083°00'7 7.5 200 / 81022.6 12.9 16.3
2017-Oct-18 05:00N 42°12' W 083°06'6 6.0 200 / 61023.0 13.1 16.3
2017-Oct-18 04:00N 42°06' W 083°06'1212.0 210 / 71023.2 14.4 16.3
2017-Oct-18 03:00N 41°54' W 083°06'9 8.9 210 / 161023.2 16.2 16.7
2017-Oct-18 02:00N 41°54' W 083°18'0 0.0 220 / 161022.9 17.8 17.3
2017-Oct-18 01:00N 41°54' W 083°18'0 0.0 160 / 11022.5 16.1 17.7
2017-Oct-18 00:00N 41°54' W 083°18'0 0.0 100 / 11022.2 17.1 17.7
2017-Oct-17 23:00N 41°54' W 083°18'0 0.0 280 / 11021.2 18.0 17.7
2017-Oct-17 22:00N 41°54' W 083°18'0 0.0 290 / 11020.8 19.0 17.6
2017-Oct-17 21:00N 41°54' W 083°18'0 0.0 210 / 21021.2 19.8 17.5
2017-Oct-17 20:00N 41°54' W 083°18'0 0.0 240 / 21021.8 19.5 17.4
2017-Oct-17 19:00N 41°54' W 083°18'0 0.0 010 / 31022.2 19.3 17.3
2017-Oct-17 18:00N 41°54' W 083°18'0 0.0 140 / 31022.5 18.8 17.3
2017-Oct-17 17:00N 41°54' W 083°18'0 0.0 180 / 31023.5 17.9 17.3
2017-Oct-17 16:00N 41°54' W 083°18'4 4.5 240 / 91024.2 15.7 17.3
2017-Oct-17 15:00N 41°54' W 083°12'7 7.5 250 / 161023.9 12.9 16.9
2017-Oct-17 14:00N 42°00' W 083°06'6 6.0 250 / 231023.5 11.4 16.3
2017-Oct-17 13:00N 42°06' W 083°06'1212.0 240 / 91023.6 9.2 16.4
2017-Oct-17 12:00N 42°18' W 083°06'1110.7 210 / 111023.0 8.5 16.5
2017-Oct-17 11:00N 42°24' W 082°54'1110.7 240 / 101023.3 9.8 16.5
2017-Oct-17 10:00N 42°30' W 082°42'7 7.5 210 / 191022.6 11.9 16.4
2017-Oct-17 09:00N 42°36' W 082°36'7 7.4 220 / 121023.5 12.4 16.4
2017-Oct-17 08:00N 42°42' W 082°30'6 6.0 200 / 51023.5 10.4 16.8
2017-Oct-17 07:00N 42°48' W 082°30'0 0.0 270 / 71024.2 9.6 19.1
2017-Oct-17 06:00N 42°48' W 082°30'0 0.0 250 / 41024.2 9.8 18.9
2017-Oct-17 05:00N 42°48' W 082°30'0 0.0 240 / 51024.2 9.9 18.9
2017-Oct-17 04:00N 42°48' W 082°30'0 0.0 230 / 51024.2 10.6 18.8
2017-Oct-17 03:00N 42°48' W 082°30'0 0.0 240 / 61024.5 10.5 18.9
2017-Oct-17 02:00N 42°48' W 082°30'0 0.0 240 / 61024.5 10.7 18.8
2017-Oct-17 01:00N 42°48' W 082°30'0 0.0 250 / 71024.8 12.0 19.0
2017-Oct-17 00:00N 42°48' W 082°30'0 0.0 240 / 61025.2 11.8 18.9
2017-Oct-16 23:00N 42°48' W 082°30'0 0.0 270 / 71024.8 11.3 18.7
2017-Oct-16 22:00N 42°48' W 082°30'0 0.0 240 / 61024.8 14.2 18.8
2017-Oct-16 21:00N 42°48' W 082°30'0 0.0 340 / 11024.8 12.7 18.8
2017-Oct-16 20:00N 42°48' W 082°30'6 6.0 240 / 41024.8 12.6 18.2
2017-Oct-16 19:00N 42°42' W 082°30'0 0.0 260 / 71025.2 11.2 17.2
2017-Oct-16 18:00N 42°42' W 082°30'0 0.0 270 / 61025.5 11.2 17.2
2017-Oct-16 17:00N 42°42' W 082°30'0 0.0 050 / 41026.2 10.1 17.2
2017-Oct-16 16:00N 42°42' W 082°30'0 0.0 010 / 81026.2 9.2 17.2
2017-Oct-16 15:00N 42°42' W 082°30'0 0.0 320 / 111025.9 7.8 17.2
2017-Oct-16 14:00N 42°42' W 082°30'6 6.0 340 / 81025.9 6.6 17.0
2017-Oct-16 13:00N 42°48' W 082°30'6 6.0 320 / 71025.2 6.4 16.9
2017-Oct-16 12:00N 42°54' W 082°30'1312.8 310 / 71024.2 4.4 16.8
2017-Oct-16 11:00N 43°06' W 082°24'1212.0 300 / 171023.2 7.0 16.9
2017-Oct-16 10:00N 43°18' W 082°24'1212.0 300 / 201022.5 7.7 16.9
2017-Oct-16 09:00N 43°30' W 082°24'1212.0 280 / 221021.8 7.8 17.6
2017-Oct-16 08:00N 43°42' W 082°24'6 6.0 310 / 201020.8 8.5 17.8
2017-Oct-16 07:00N 43°48' W 082°24'1312.8 340 / 191021.1 10.4 17.8
2017-Oct-16 06:00N 44°00' W 082°30'1312.8 330 / 211020.8 10.2 16.8
2017-Oct-16 05:00N 44°12' W 082°36'8112.0 330 / 201020.1 10.2 15.2
2017-Oct-15 22:14N 45°28' W 083°16'311.8
2017-Oct-15 22:00N 45°30' W 083°19'611.8
2017-Oct-15 21:30N 45°35' W 083°24'611.8
2017-Oct-15 21:00N 45°39' W 083°30'611.8
2017-Oct-15 20:30N 45°43' W 083°36'1711.1
2017-Oct-15 19:00N 45°54' W 083°54'1312.7 350 / 281009.9 7.7 14.9
2017-Oct-15 18:00N 46°06' W 084°00'7 7.3 330 / 261008.6 6.3 14.3
2017-Oct-15 17:00N 46°12' W 084°06'7 7.3 010 / 231006.6 6.1 14.2
2017-Oct-15 16:00N 46°18' W 084°12'6 6.0 330 / 181005.9 8.0 14.3
2017-Oct-15 15:00N 46°24' W 084°12'7 7.3 010 / 151004.9 7.2 14.6
2017-Oct-15 14:00N 46°30' W 084°18'4 4.1 360 / 111004.2 7.4 14.8
2017-Oct-15 13:00N 46°30' W 084°24'0 0.0 030 / 81003.4 8.0 14.9
2017-Oct-15 12:00N 46°30' W 084°24'0 0.0 040 / 121001.7 7.3 14.8
2017-Oct-15 11:00N 46°30' W 084°24'0 0.0 050 / 111000.7 8.2 14.8
2017-Oct-15 10:00N 46°30' W 084°24'4 4.1 050 / 141001.4 8.2 15.0
2017-Oct-15 09:00N 46°30' W 084°30'4 4.1 070 / 111002.4 8.2 15.1
2017-Oct-15 08:00N 46°30' W 084°36'4 4.1 080 / 161004.7 8.7 15.4
2017-Oct-15 07:00N 46°30' W 084°42'1312.7 040 / 151007.1 8.7 15.5
2017-Oct-15 06:00N 46°42' W 084°48'7 7.3 050 / 211009.8 8.4 15.7
2017-Oct-15 05:00N 46°48' W 084°54'1413.7 090 / 181011.2 9.7 15.3
2017-Oct-15 04:00N 46°54' W 085°12'1413.7 090 / 141012.9 12.5 14.7
2017-Oct-15 03:00N 47°00' W 085°30'6610.9 120 / 331013.2 12.8 13.3
2017-Oct-14 21:00N 47°24' W 087°00'1413.6 130 / 91020.0 10.6 12.5
2017-Oct-14 20:00N 47°30' W 087°18'1413.5 090 / 71021.0 10.5 12.5
2017-Oct-14 19:00N 47°36' W 087°36'1212.1 100 / 71021.7 10.1 13.2
2017-Oct-14 18:00N 47°36' W 087°54'1212.1 090 / 101022.7 9.6 11.4
2017-Oct-14 17:00N 47°36' W 088°12'1212.1 080 / 101023.4 9.6 12.0
2017-Oct-14 16:00N 47°36' W 088°30'1010.1 080 / 71024.0 9.7 12.0
2017-Oct-14 15:00N 47°30' W 088°42'1212.2 080 / 81024.4 10.1 12.7
2017-Oct-14 14:00N 47°30' W 089°00'1413.6 070 / 81024.4 9.9 12.5
2017-Oct-14 13:00N 47°24' W 089°18'1212.2 030 / 121023.4 10.2 13.0
2017-Oct-14 12:00N 47°24' W 089°36'1212.2 040 / 71022.4 10.5 13.0
2017-Oct-14 11:00N 47°24' W 089°54'1413.6 040 / 61022.7 10.7 12.4
2017-Oct-14 10:00N 47°18' W 090°12'1212.2 360 / 61023.0 10.4 12.4
2017-Oct-14 09:00N 47°18' W 090°30'1010.1 020 / 51023.0 10.6 12.2
2017-Oct-14 08:00N 47°12' W 090°42'1212.2 320 / 81023.0 10.6 12.9
2017-Oct-14 07:00N 47°12' W 091°00'1315.2 340 / 101022.7 10.7 13.6
2017-Oct-14 06:09N 47°04' W 091°15'212.2
2017-Oct-14 06:00N 47°03' W 091°18'3365.1
2017-Oct-14 06:00N 47°06' W 091°18'914.3 320 / 131022.7 10.0 14.8
2017-Oct-14 05:20N 46°60' W 091°28'412.6
2017-Oct-14 05:00N 46°58' W 091°34'3817.6
2017-Oct-14 05:00N 47°00' W 091°30'919.2 320 / 121022.7 10.0 15.1
2017-Oct-14 04:30N 46°55' W 091°42'4 8.7
2017-Oct-14 04:00N 46°54' W 091°48'2358.9 310 / 121022.7 10.6 14.5
2017-Oct-14 03:59N 46°52' W 091°50'612.1
2017-Oct-14 03:30N 46°50' W 091°57'611.2
2017-Oct-14 03:00N 46°47' W 092°05'184.9
2017-Oct-14 03:00N 46°48' W 092°06'3 6.1 320 / 91022.7 10.2 14.3
2017-Oct-14 02:30N 46°45' W 092°06'3 5.9
2017-Oct-14 02:00N 46°42' W 092°06'3156.3 270 / 41022.0 10.8 13.2
2017-Oct-14 01:58N 46°45' W 092°07'0 0.0
2017-Oct-14 01:29N 46°45' W 092°07'3 5.5
2017-Oct-14 01:00N 46°42' W 092°06'3156.3 290 / 41021.7 10.5 13.2
2017-Oct-14 00:58N 46°45' W 092°07'0 0.0
2017-Oct-14 00:29N 46°45' W 092°07'3 5.5
2017-Oct-14 00:00N 46°42' W 092°06'339.4 300 / 91021.0 12.6 12.9
2017-Oct-13 23:55N 46°45' W 092°07'0 0.0
2017-Oct-13 23:26N 46°45' W 092°07'3 6.1
2017-Oct-13 23:00N 46°42' W 092°06'3156.0 290 / 51020.3 14.4 12.7
2017-Oct-13 22:58N 46°45' W 092°07'0 0.0
2017-Oct-13 22:28N 46°45' W 092°07'3 5.5
2017-Oct-13 22:00N 46°42' W 092°06'3158.9 320 / 91020.0 13.9 12.5
2017-Oct-13 21:59N 46°45' W 092°07'0 0.0
2017-Oct-13 21:28N 46°45' W 092°07'3 5.5
2017-Oct-13 21:00N 46°42' W 092°06'3151.4 1020.0 14.9 12.5
2017-Oct-13 20:58N 46°45' W 092°07'0 0.0
2017-Oct-13 20:28N 46°45' W 092°07'3 5.5
2017-Oct-13 20:00N 46°42' W 092°06'3158.9 290 / 121019.6 15.2 12.4
2017-Oct-13 19:59N 46°45' W 092°07'0 0.0
2017-Oct-13 19:28N 46°45' W 092°07'3 5.5
2017-Oct-13 19:00N 46°42' W 092°06'3146.7 310 / 111019.6 13.5 12.4
2017-Oct-13 18:58N 46°45' W 092°07'0 0.0
2017-Oct-13 18:26N 46°45' W 092°07'3 6.1
2017-Oct-13 18:00N 46°42' W 092°06'339.0 280 / 151019.6 14.0 12.4
2017-Oct-13 17:55N 46°45' W 092°07'0 0.0
2017-Oct-13 17:28N 46°45' W 092°07'3 5.5
2017-Oct-13 17:00N 46°42' W 092°06'339.7 310 / 121020.0 11.3 12.4
2017-Oct-13 16:56N 46°45' W 092°07'0 0.0
2017-Oct-13 16:25N 46°45' W 092°07'3 6.1
2017-Oct-13 16:00N 46°42' W 092°06'3151.4 290 / 121020.3 11.5 12.5
2017-Oct-13 15:58N 46°45' W 092°07'0 0.0
2017-Oct-13 15:28N 46°45' W 092°07'0 0.0
2017-Oct-13 15:00N 46°45' W 092°07'3222.1
2017-Oct-13 15:00N 46°42' W 092°06'3 6.6 270 / 81020.0 10.9 12.4
2017-Oct-13 14:30N 46°45' W 092°06'0 0.8
2017-Oct-13 14:00N 46°46' W 092°06'2157.2
2017-Oct-13 14:00N 46°48' W 092°06'2 5.0 230 / 101019.3 10.1 13.1
2017-Oct-13 13:30N 46°46' W 092°06'0 0.0
2017-Oct-13 13:00N 46°46' W 092°06'2166.1
2017-Oct-13 13:00N 46°48' W 092°06'2 5.0 270 / 61017.3 10.9 13.1
2017-Oct-13 12:30N 46°46' W 092°06'0 0.2
2017-Oct-13 12:00N 46°46' W 092°06'2163.4
2017-Oct-13 12:00N 46°48' W 092°06'2 4.7 280 / 71016.9 11.1 13.3
2017-Oct-13 11:30N 46°48' W 092°03'612.5
2017-Oct-13 11:00N 46°50' W 091°54'2141.2
2017-Oct-13 11:00N 46°48' W 091°54'714.7 280 / 111014.9 12.7 14.7
2017-Oct-13 10:30N 46°53' W 091°46'612.5
2017-Oct-13 10:00N 46°55' W 091°37'1198.2
2017-Oct-13 10:00N 46°54' W 091°36'611.9 240 / 121013.5 13.9 15.3
2017-Oct-13 09:30N 46°57' W 091°29'4 8.5
2017-Oct-13 09:00N 47°00' W 091°24'1413.7 220 / 161013.2 14.1 15.1
2017-Oct-13 08:00N 47°06' W 091°06'1413.6 250 / 121013.2 14.1 14.2
2017-Oct-13 07:00N 47°12' W 090°48'1212.2 220 / 141013.2 14.2 13.7
2017-Oct-13 06:00N 47°12' W 090°30'1413.6 180 / 131013.5 13.8 13.4
2017-Oct-13 05:00N 47°18' W 090°12'1413.6 190 / 131013.9 13.4 12.9
2017-Oct-13 04:00N 47°24' W 089°54'1413.6 160 / 121014.6 12.5 13.4
2017-Oct-13 03:00N 47°30' W 089°36'1212.2 170 / 131014.9 12.8 13.4
2017-Oct-13 02:00N 47°30' W 089°18'1413.5 170 / 161014.9 12.8 13.4
2017-Oct-13 01:00N 47°36' W 089°00'1212.1 190 / 181015.9 13.3 13.6
2017-Oct-13 00:00N 47°36' W 088°42'1212.1 180 / 121016.6 13.7 13.3
2017-Oct-12 23:00N 47°36' W 088°24'1413.5 160 / 151017.3 13.3 12.4
2017-Oct-12 22:00N 47°42' W 088°06'1212.1 160 / 131017.6 12.8 11.9
2017-Oct-12 21:00N 47°42' W 087°48'1717.2 160 / 201018.3 12.8 11.4
2017-Oct-12 20:00N 47°36' W 087°24'1010.1 160 / 181019.3 12.1 12.5
2017-Oct-12 19:00N 47°30' W 087°12'1413.6 170 / 151021.0 11.8 12.5
2017-Oct-12 18:00N 47°24' W 086°54'1413.6 160 / 161022.0 11.9 13.7
2017-Oct-12 17:00N 47°18' W 086°36'6212.4 150 / 161023.4 11.8 14.2
2017-Oct-12 12:00N 46°54' W 085°12'1717.2 150 / 161027.1 10.1 15.4
2017-Oct-12 11:00N 46°42' W 084°54'1010.2 120 / 171026.8 9.3 16.0
2017-Oct-12 10:00N 46°36' W 084°42'1010.2 120 / 151027.1 9.1 15.8
2017-Oct-12 09:00N 46°30' W 084°30'4 4.1 090 / 101027.1 7.5 15.5
2017-Oct-12 08:00N 46°30' W 084°24'4 4.1 110 / 31027.1 8.7 15.4
2017-Oct-12 07:00N 46°30' W 084°18'0 0.0 110 / 81027.2 10.0 15.6
2017-Oct-12 06:00N 46°30' W 084°18'0 0.0 080 / 81026.9 9.2 15.4
2017-Oct-12 05:00N 46°30' W 084°18'7 7.3 080 / 51027.2 8.5 15.3
2017-Oct-12 04:00N 46°24' W 084°12'7 7.3 110 / 111027.2 9.9 15.3
2017-Oct-12 03:00N 46°18' W 084°06'6 6.0 080 / 61027.2 10.2 15.5
2017-Oct-12 02:00N 46°12' W 084°06'7 7.3 060 / 101026.9 11.8 15.4
2017-Oct-12 01:00N 46°06' W 084°00'1515.5 120 / 121026.9 12.2 15.5
2017-Oct-12 00:01N 45°52' W 083°50'273.5
2017-Oct-12 00:00N 45°54' W 083°48'2190.9 100 / 201026.2 12.5 15.7
2017-Oct-11 23:59N 45°52' W 083°50'712.6
2017-Oct-11 23:27N 45°46' W 083°45'612.4
2017-Oct-11 23:00N 45°42' W 083°40'1124.7
2017-Oct-11 23:00N 45°42' W 083°42'714.3 110 / 181026.510.8 12.8 17.1
2017-Oct-11 22:30N 45°37' W 083°35'612.4
2017-Oct-11 22:00N 45°32' W 083°30'612.5
2017-Oct-11 21:30N 45°27' W 083°25'612.5
2017-Oct-11 21:00N 45°21' W 083°20'3202.6
2017-Oct-11 21:00N 45°24' W 083°18'1312.7 080 / 191026.2 12.6 17.1
2017-Oct-11 20:00N 45°12' W 083°12'1312.7 090 / 221025.5 11.8 16.7
2017-Oct-11 19:00N 45°00' W 083°06'1312.7 080 / 211024.8 12.3 17.7
2017-Oct-11 18:00N 44°48' W 083°00'1312.7 090 / 251024.2 11.9 17.2
2017-Oct-11 17:00N 44°36' W 082°54'3511.5 100 / 251023.8 11.5 16.9
2017-Oct-11 14:00N 44°06' W 082°30'1312.8 090 / 271022.8 11.7 17.8
2017-Oct-11 13:00N 43°54' W 082°24'1212.0 080 / 261021.8 12.4 19.2
2017-Oct-11 12:00N 43°42' W 082°24'1212.0 080 / 231020.4 13.6 19.2
2017-Oct-11 11:00N 43°30' W 082°24'1212.0 080 / 231019.1 13.5 19.1
2017-Oct-11 10:00N 43°18' W 082°24'1212.0 070 / 211018.4 13.6 19.0
2017-Oct-11 09:00N 43°06' W 082°24'6 6.0 070 / 171019.1 14.4 18.8
2017-Oct-11 08:00N 43°00' W 082°24'1312.8 090 / 71020.1 13.7 18.9
2017-Oct-11 07:00N 42°48' W 082°30'0 0.0 050 / 101020.1 13.6 19.3
2017-Oct-11 06:00N 42°48' W 082°30'0 0.0 080 / 91021.1 14.4 21.7
2017-Oct-11 05:00N 42°48' W 082°30'0 0.0 090 / 121020.1 14.4 21.4
2017-Oct-11 04:00N 42°48' W 082°30'0 0.0 070 / 131021.1 14.6 21.4
2017-Oct-11 03:00N 42°48' W 082°30'0 0.0 080 / 121021.8 15.0 21.6
2017-Oct-11 02:00N 42°48' W 082°30'0 0.0 060 / 121022.1 15.1 21.6
2017-Oct-11 01:00N 42°48' W 082°30'0 0.0 010 / 121022.8 15.3 21.3
2017-Oct-11 00:00N 42°48' W 082°30'0 0.0 080 / 101022.5 15.3 21.5
2017-Oct-10 23:00N 42°48' W 082°30'0 0.0 080 / 111022.5 15.8 21.3
2017-Oct-10 22:00N 42°48' W 082°30'0 0.0 070 / 111022.1 16.3 21.5
2017-Oct-10 21:00N 42°48' W 082°30'0 0.0 080 / 101021.8 16.9 21.5
2017-Oct-10 20:00N 42°48' W 082°30'   070 / 51022.5 17.4 21.4

Dump ship's entire track history